Time;durP1;ratioP1;P1;durP2;ratioP2;P2;SDS_P1;SDS_P2;PMS_P1;PMS_P2;Temp;Humidity;BMP_temperature;BMP_pressure;BME280_temperature;BME280_humidity;BME280_pressure;Samples;Min_cycle;Max_cycle;Signal;HPM_P1;HPM_P2
2023/05/14 00:01:54;;;;;;;12.65;8.93;;;14.20;99.90;;;;;;4997549;28;20073;-82
2023/05/14 00:04:20;;;;;;;13.73;9.88;;;14.20;99.90;;;;;;4996713;28;20037;-82
2023/05/14 00:06:46;;;;;;;13.93;9.13;;;14.20;99.90;;;;;;5015244;28;20054;-82
2023/05/14 00:09:12;;;;;;;12.45;9.35;;;14.20;99.90;;;;;;5014445;28;20052;-82
2023/05/14 00:11:37;;;;;;;16.52;9.27;;;14.20;99.90;;;;;;5020731;28;20041;-82
2023/05/14 00:14:03;;;;;;;13.27;9.77;;;14.20;99.90;;;;;;5012058;28;20052;-83
2023/05/14 00:16:29;;;;;;;14.75;10.25;;;14.20;99.90;;;;;;5015553;28;20046;-82
2023/05/14 00:18:55;;;;;;;16.30;10.48;;;14.10;99.90;;;;;;4993600;28;20042;-83
2023/05/14 00:21:20;;;;;;;16.33;11.07;;;14.10;99.90;;;;;;5002579;28;20046;-82
2023/05/14 00:23:46;;;;;;;13.70;9.48;;;14.10;99.90;;;;;;4985130;28;20075;-82
2023/05/14 00:26:12;;;;;;;16.40;9.63;;;14.10;99.90;;;;;;5000735;28;20199;-82
2023/05/14 00:28:37;;;;;;;14.27;9.00;;;14.10;99.90;;;;;;4996356;28;20450;-82
2023/05/14 00:31:03;;;;;;;17.50;10.38;;;14.00;99.90;;;;;;4994595;28;20026;-82
2023/05/14 00:33:29;;;;;;;12.70;9.25;;;14.00;99.90;;;;;;4993277;28;20507;-83
2023/05/14 00:35:55;;;;;;;14.73;9.98;;;14.00;99.90;;;;;;4993017;28;20519;-83
2023/05/14 00:38:22;;;;;;;10.63;7.07;;;13.90;99.90;;;;;;4992632;28;20076;-82
2023/05/14 00:40:50;;;;;;;12.23;7.50;;;13.90;99.90;;;;;;4999689;28;20472;-82
2023/05/14 00:43:22;;;;;;;17.17;10.43;;;14.00;99.90;;;;;;4993276;28;20060;-83
2023/05/14 00:45:53;;;;;;;13.73;8.80;;;13.90;99.90;;;;;;4976674;28;20049;-82
2023/05/14 00:48:22;;;;;;;16.52;9.50;;;13.90;99.90;;;;;;5012901;28;20049;-82
2023/05/14 00:50:48;;;;;;;16.25;9.73;;;13.90;99.90;;;;;;4992031;28;20088;-82
2023/05/14 00:53:15;;;;;;;13.63;8.48;;;13.90;99.90;;;;;;5000219;28;20045;-82
2023/05/14 00:55:41;;;;;;;15.52;9.88;;;13.80;99.90;;;;;;5015185;28;20112;-83
2023/05/14 00:58:12;;;;;;;11.85;7.78;;;13.90;99.90;;;;;;5012477;28;20126;-82
2023/05/14 01:00:38;;;;;;;16.58;9.25;;;13.80;99.90;;;;;;4998363;28;20042;-82
2023/05/14 01:03:06;;;;;;;14.63;10.10;;;13.80;99.90;;;;;;5010605;28;20042;-82
2023/05/14 01:05:57;;;;;;;16.15;10.05;;;13.80;99.90;;;;;;5020944;28;20049;-83
2023/05/14 01:08:37;;;;;;;14.23;8.50;;;13.80;99.90;;;;;;5019053;28;20064;-82
2023/05/14 01:11:12;;;;;;;18.33;10.15;;;13.70;99.90;;;;;;4992581;28;20046;-82
2023/05/14 01:13:53;;;;;;;17.48;10.25;;;13.70;99.90;;;;;;4996604;28;20049;-82
2023/05/14 01:16:19;;;;;;;12.05;8.38;;;13.60;99.90;;;;;;4998783;28;20048;-82
2023/05/14 01:18:47;;;;;;;13.60;7.60;;;13.60;99.90;;;;;;5016167;28;20037;-82
2023/05/14 01:21:39;;;;;;;11.82;7.10;;;13.60;99.90;;;;;;5014665;28;20431;-82
2023/05/14 01:24:06;;;;;;;14.32;9.60;;;13.60;99.90;;;;;;5010816;28;20045;-82
2023/05/14 01:26:32;;;;;;;18.42;10.25;;;13.50;99.90;;;;;;5020623;28;20088;-82
2023/05/14 01:29:25;;;;;;;13.32;8.57;;;13.50;99.90;;;;;;4995979;28;20071;-82
2023/05/14 01:31:54;;;;;;;13.35;9.27;;;13.50;99.90;;;;;;4993755;28;20049;-82
2023/05/14 01:34:23;;;;;;;13.70;9.98;;;13.40;99.90;;;;;;5018778;28;20112;-82
2023/05/14 01:36:50;;;;;;;16.08;9.20;;;13.40;99.90;;;;;;5016737;28;20065;-82
2023/05/14 01:39:17;;;;;;;16.63;8.60;;;13.30;99.90;;;;;;4983530;28;20060;-83
2023/05/14 01:41:44;;;;;;;19.58;9.88;;;13.30;99.90;;;;;;4998440;28;20042;-82
2023/05/14 01:44:10;;;;;;;12.85;9.70;;;13.30;99.90;;;;;;4998095;28;20078;-82
2023/05/14 01:46:36;;;;;;;20.73;7.88;;;13.20;99.90;;;;;;5020307;28;20026;-82
2023/05/14 01:49:02;;;;;;;16.13;9.32;;;13.20;99.90;;;;;;4998357;28;20111;-80
2023/05/14 01:51:28;;;;;;;12.95;7.22;;;13.10;99.90;;;;;;5000093;28;20124;-81
2023/05/14 01:53:53;;;;;;;17.23;8.77;;;13.20;99.90;;;;;;4996237;28;20037;-81
2023/05/14 01:56:22;;;;;;;14.07;8.50;;;13.10;99.90;;;;;;5013802;28;20049;-82
2023/05/14 01:58:48;;;;;;;14.82;8.93;;;13.10;99.90;;;;;;5020651;28;20030;-82
2023/05/14 02:01:14;;;;;;;11.60;7.20;;;13.10;99.90;;;;;;5018231;28;20213;-82
2023/05/14 02:03:40;;;;;;;16.23;9.93;;;13.00;99.90;;;;;;5007054;28;20100;-81
2023/05/14 02:06:06;;;;;;;15.32;8.38;;;13.10;99.90;;;;;;5001845;28;20080;-82
2023/05/14 02:08:31;;;;;;;17.42;10.07;;;13.00;99.90;;;;;;5021521;28;20513;-82
2023/05/14 02:10:57;;;;;;;14.15;7.50;;;13.00;99.90;;;;;;5004589;28;20041;-82
2023/05/14 02:13:24;;;;;;;13.75;7.00;;;12.90;99.90;;;;;;5003978;28;20480;-82
2023/05/14 02:15:50;;;;;;;12.10;7.68;;;13.00;99.90;;;;;;5000123;28;20522;-82
2023/05/14 02:18:16;;;;;;;12.98;7.93;;;13.00;99.90;;;;;;5016160;28;20061;-82
2023/05/14 02:20:41;;;;;;;19.23;8.32;;;13.00;99.90;;;;;;5020298;28;20041;-82
2023/05/14 02:23:07;;;;;;;12.85;8.02;;;13.00;99.90;;;;;;5021914;28;20056;-82
2023/05/14 02:25:34;;;;;;;12.85;7.55;;;13.00;99.90;;;;;;5020519;28;20116;-81
2023/05/14 02:27:59;;;;;;;14.05;8.25;;;12.90;99.90;;;;;;4986488;28;20484;-82
2023/05/14 02:30:25;;;;;;;12.32;8.02;;;13.10;99.90;;;;;;4996162;28;20045;-82
2023/05/14 02:32:51;;;;;;;10.98;7.20;;;12.90;99.90;;;;;;5002573;28;20479;-81
2023/05/14 02:35:16;;;;;;;10.18;7.05;;;12.90;99.90;;;;;;5014584;28;20042;-82
2023/05/14 02:37:42;;;;;;;11.40;8.35;;;12.90;99.90;;;;;;5022033;28;20432;-82
2023/05/14 02:40:08;;;;;;;12.32;8.27;;;12.90;99.90;;;;;;5017914;28;20049;-81
2023/05/14 02:42:34;;;;;;;13.20;8.45;;;12.90;99.90;;;;;;4990418;28;20065;-82
2023/05/14 02:45:00;;;;;;;18.63;6.85;;;12.80;99.90;;;;;;5016218;28;20034;-81
2023/05/14 02:47:25;;;;;;;13.80;8.18;;;12.90;99.90;;;;;;5016798;28;20199;-81
2023/05/14 02:49:51;;;;;;;15.90;9.13;;;12.80;99.90;;;;;;4998125;28;20095;-82
2023/05/14 02:52:17;;;;;;;14.40;7.28;;;12.80;99.90;;;;;;5004092;28;20071;-81
2023/05/14 02:54:42;;;;;;;13.25;8.50;;;12.80;99.90;;;;;;5021791;28;20030;-82
2023/05/14 02:57:08;;;;;;;16.67;8.38;;;12.80;99.90;;;;;;5015553;28;20426;-82
2023/05/14 02:59:33;;;;;;;17.63;8.48;;;12.80;99.90;;;;;;4999510;28;20060;-82
2023/05/14 03:01:59;;;;;;;12.82;8.75;;;12.70;99.90;;;;;;5024700;28;20037;-82
2023/05/14 03:04:24;;;;;;;12.18;8.02;;;12.80;99.90;;;;;;5012093;28;20033;-82
2023/05/14 03:06:50;;;;;;;8.15;6.47;;;12.90;99.90;;;;;;5016315;28;20042;-82
2023/05/14 03:09:16;;;;;;;14.88;9.65;;;12.80;99.90;;;;;;5003383;28;20129;-82
2023/05/14 03:11:41;;;;;;;11.45;7.35;;;12.80;99.90;;;;;;4998016;28;20048;-82
2023/05/14 03:14:07;;;;;;;16.48;9.75;;;12.70;99.90;;;;;;5018812;28;20042;-82
2023/05/14 03:16:33;;;;;;;12.75;7.25;;;12.70;99.90;;;;;;5021966;28;20029;-82
2023/05/14 03:18:58;;;;;;;15.05;9.05;;;12.70;99.90;;;;;;5021935;28;20049;-82
2023/05/14 03:21:24;;;;;;;20.70;10.82;;;12.70;99.90;;;;;;5003005;28;20040;-82
2023/05/14 03:23:51;;;;;;;12.10;7.18;;;12.70;99.90;;;;;;4997213;28;20068;-82
2023/05/14 03:26:17;;;;;;;13.27;8.30;;;12.70;99.90;;;;;;5015526;28;20100;-82
2023/05/14 03:28:43;;;;;;;14.65;9.27;;;12.70;99.90;;;;;;5007720;28;20377;-82
2023/05/14 03:31:09;;;;;;;15.07;9.18;;;12.70;99.90;;;;;;5006362;28;20033;-82
2023/05/14 03:33:35;;;;;;;13.02;7.60;;;12.60;99.90;;;;;;4999015;28;20100;-81
2023/05/14 03:36:01;;;;;;;14.93;8.27;;;12.50;99.90;;;;;;4998562;28;20044;-81
2023/05/14 03:38:26;;;;;;;12.73;8.40;;;12.50;99.90;;;;;;5013057;28;20128;-81
2023/05/14 03:40:52;;;;;;;18.60;9.23;;;12.50;99.90;;;;;;5015247;28;20042;-81
2023/05/14 03:43:18;;;;;;;13.57;8.00;;;12.40;99.90;;;;;;4998398;28;20030;-82
2023/05/14 03:45:43;;;;;;;16.15;9.00;;;12.40;99.90;;;;;;5013485;28;20120;-82
2023/05/14 03:48:09;;;;;;;15.73;7.30;;;12.40;99.90;;;;;;5002905;28;20037;-82
2023/05/14 03:50:35;;;;;;;14.43;8.15;;;12.30;99.90;;;;;;5021940;28;20061;-81
2023/05/14 03:53:01;;;;;;;15.82;9.38;;;12.30;99.90;;;;;;5002802;28;20044;-82
2023/05/14 03:55:26;;;;;;;14.63;8.40;;;12.30;99.90;;;;;;5002088;28;20060;-82
2023/05/14 03:57:52;;;;;;;12.82;8.30;;;12.30;99.90;;;;;;5001825;28;20124;-81
2023/05/14 04:00:18;;;;;;;14.25;8.57;;;12.30;99.90;;;;;;5019040;28;20069;-82
2023/05/14 04:02:43;;;;;;;17.17;9.93;;;12.30;99.90;;;;;;5019675;28;20095;-81
2023/05/14 04:05:09;;;;;;;18.15;9.48;;;12.30;99.90;;;;;;5025298;28;20056;-82
2023/05/14 04:07:34;;;;;;;17.17;9.60;;;12.30;99.90;;;;;;5018392;28;20082;-82
2023/05/14 04:10:02;;;;;;;17.27;10.20;;;12.20;99.90;;;;;;5004070;28;20040;-81
2023/05/14 04:12:27;;;;;;;14.85;9.65;;;12.20;99.90;;;;;;5005864;28;20033;-82
2023/05/14 04:14:53;;;;;;;12.70;7.68;;;12.30;99.90;;;;;;5024388;28;20030;-82
2023/05/14 04:17:19;;;;;;;14.02;9.30;;;12.30;99.90;;;;;;4997757;28;20529;-82
2023/05/14 04:19:44;;;;;;;18.55;9.45;;;12.30;99.90;;;;;;5001986;28;20411;-82
2023/05/14 04:22:10;;;;;;;20.38;9.70;;;12.30;99.90;;;;;;4999677;28;20041;-82
2023/05/14 04:24:36;;;;;;;10.55;7.68;;;12.30;99.90;;;;;;5005839;28;20030;-81
2023/05/14 04:27:02;;;;;;;13.50;7.90;;;12.30;99.90;;;;;;4998557;28;20073;-82
2023/05/14 04:29:27;;;;;;;10.68;6.97;;;12.40;99.90;;;;;;5002798;28;20045;-82
2023/05/14 04:31:53;;;;;;;12.73;7.63;;;12.30;99.90;;;;;;5003102;28;20802;-81
2023/05/14 04:34:18;;;;;;;15.20;8.55;;;12.40;99.90;;;;;;5013727;28;20095;-82
2023/05/14 04:36:44;;;;;;;17.02;8.43;;;12.30;99.90;;;;;;5002165;28;20410;-82
2023/05/14 04:39:11;;;;;;;16.92;8.57;;;12.40;99.90;;;;;;4998981;28;20045;-82
2023/05/14 04:41:37;;;;;;;13.77;8.35;;;12.40;99.90;;;;;;5011333;28;20492;-82
2023/05/14 04:44:03;;;;;;;15.65;7.90;;;12.30;99.90;;;;;;4989836;28;20029;-82
2023/05/14 04:46:29;;;;;;;14.57;9.15;;;12.30;99.90;;;;;;5016400;28;20096;-81
2023/05/14 04:48:55;;;;;;;12.65;6.95;;;12.30;99.90;;;;;;5004841;28;20049;-82
2023/05/14 04:51:21;;;;;;;12.43;8.95;;;12.40;99.90;;;;;;5001228;28;20439;-82
2023/05/14 04:53:47;;;;;;;15.50;8.63;;;12.40;99.90;;;;;;5003772;28;20041;-82
2023/05/14 04:56:12;;;;;;;15.05;9.05;;;12.40;99.90;;;;;;5010179;28;20092;-81
2023/05/14 04:58:38;;;;;;;16.00;8.85;;;12.40;99.90;;;;;;4995360;28;20037;-81
2023/05/14 05:01:04;;;;;;;14.25;8.40;;;12.40;99.90;;;;;;5017747;28;20065;-82
2023/05/14 05:03:31;;;;;;;17.88;8.93;;;12.40;99.90;;;;;;5017319;28;20040;-81
2023/05/14 05:05:56;;;;;;;14.13;7.93;;;12.40;99.90;;;;;;5013851;28;20057;-82
2023/05/14 05:08:22;;;;;;;19.42;10.00;;;12.40;99.90;;;;;;4997052;28;20385;-82
2023/05/14 05:10:48;;;;;;;21.42;9.73;;;12.40;99.90;;;;;;5018838;28;20034;-82
2023/05/14 05:13:15;;;;;;;17.70;9.35;;;12.40;99.90;;;;;;4998002;28;20511;-82
2023/05/14 05:15:41;;;;;;;18.98;10.30;;;12.40;99.90;;;;;;4999746;28;20038;-83
2023/05/14 05:18:07;;;;;;;14.63;9.95;;;12.40;99.90;;;;;;5002026;28;20499;-83
2023/05/14 05:20:33;;;;;;;16.17;8.00;;;12.40;99.90;;;;;;5000980;28;20404;-83
2023/05/14 05:22:58;;;;;;;22.88;9.60;;;12.40;99.90;;;;;;5002099;28;20114;-82
2023/05/14 05:25:24;;;;;;;18.10;10.18;;;12.50;99.90;;;;;;4998092;28;20446;-83
2023/05/14 05:27:49;;;;;;;20.30;11.35;;;12.40;99.90;;;;;;4976792;28;20041;-83
2023/05/14 05:30:15;;;;;;;18.55;10.02;;;12.60;99.90;;;;;;5021415;28;20041;-82
2023/05/14 05:32:41;;;;;;;17.75;9.75;;;12.50;99.90;;;;;;5017324;28;20060;-82
2023/05/14 05:35:07;;;;;;;14.98;9.13;;;12.50;99.90;;;;;;5019685;28;20041;-83
2023/05/14 05:37:32;;;;;;;15.50;9.13;;;12.50;99.90;;;;;;5021101;28;20504;-83
2023/05/14 05:39:58;;;;;;;17.85;8.60;;;12.50;99.90;;;;;;4985412;28;20485;-82
2023/05/14 05:42:23;;;;;;;23.23;11.45;;;12.70;99.90;;;;;;5004422;28;20041;-84
2023/05/14 05:44:49;;;;;;;16.85;9.10;;;12.60;99.90;;;;;;5008926;28;20045;-84
2023/05/14 05:47:15;;;;;;;19.88;9.77;;;12.60;99.90;;;;;;5002933;28;20038;-84
2023/05/14 05:49:41;;;;;;;15.73;8.30;;;12.80;99.90;;;;;;5006417;28;20042;-84
2023/05/14 05:52:07;;;;;;;14.48;7.65;;;12.80;99.90;;;;;;5005545;28;20456;-84
2023/05/14 05:54:33;;;;;;;16.73;7.88;;;12.90;99.90;;;;;;5004720;28;20048;-84
2023/05/14 05:56:58;;;;;;;16.27;9.48;;;12.80;99.90;;;;;;5008207;28;20045;-83
2023/05/14 05:59:24;;;;;;;15.77;8.93;;;12.90;99.90;;;;;;5026252;28;20063;-84
2023/05/14 06:01:50;;;;;;;18.20;8.18;;;12.90;99.90;;;;;;5009436;28;20069;-84
2023/05/14 06:04:15;;;;;;;17.17;9.60;;;12.90;99.90;;;;;;5008363;28;20057;-85
2023/05/14 06:06:41;;;;;;;18.13;9.98;;;13.00;99.90;;;;;;5002311;28;20109;-84
2023/05/14 06:09:07;;;;;;;20.20;10.13;;;13.00;99.90;;;;;;5012043;28;20041;-84
2023/05/14 06:11:34;;;;;;;15.15;8.38;;;13.10;99.90;;;;;;5004976;28;20140;-85
2023/05/14 06:14:00;;;;;;;23.52;10.18;;;13.10;99.90;;;;;;4999259;28;20065;-84
2023/05/14 06:16:25;;;;;;;13.57;7.32;;;13.20;99.90;;;;;;5018917;28;20567;-84
2023/05/14 06:18:51;;;;;;;21.60;10.32;;;13.20;99.90;;;;;;5001347;28;20096;-82
2023/05/14 06:21:17;;;;;;;16.70;8.48;;;13.30;99.90;;;;;;5019670;28;20107;-83
2023/05/14 06:23:43;;;;;;;17.33;8.63;;;13.30;99.90;;;;;;5014616;28;20172;-83
2023/05/14 06:26:13;;;;;;;20.17;8.95;;;13.40;99.90;;;;;;4991251;28;20520;-92
2023/05/14 06:28:38;;;;;;;15.65;9.13;;;13.50;99.90;;;;;;5018007;28;20038;-84
2023/05/14 06:31:04;;;;;;;21.70;9.35;;;13.50;99.90;;;;;;5004631;28;20044;-87
2023/05/14 06:33:30;;;;;;;16.67;8.15;;;13.60;99.90;;;;;;5022716;28;20045;-87
2023/05/14 06:35:57;;;;;;;17.08;9.05;;;13.70;99.90;;;;;;4985027;28;20125;-83
2023/05/14 06:38:23;;;;;;;17.23;8.45;;;13.80;99.90;;;;;;5021902;28;20116;-84
2023/05/14 06:40:49;;;;;;;18.77;7.25;;;13.90;99.90;;;;;;5000745;28;20452;-84
2023/05/14 06:43:15;;;;;;;18.40;8.32;;;14.00;99.90;;;;;;4999973;28;20041;-84
2023/05/14 06:45:40;;;;;;;14.52;7.97;;;14.00;99.90;;;;;;5025503;28;20487;-81
2023/05/14 06:48:08;;;;;;;18.08;8.75;;;14.10;99.90;;;;;;5004941;28;20037;-82
2023/05/14 06:50:34;;;;;;;16.60;9.07;;;14.10;99.90;;;;;;5001270;28;20046;-81
2023/05/14 06:53:00;;;;;;;18.38;8.68;;;14.20;99.90;;;;;;5003292;28;20033;-82
2023/05/14 06:55:25;;;;;;;17.60;8.15;;;14.30;99.90;;;;;;5003644;28;20121;-82
2023/05/14 06:57:51;;;;;;;14.07;7.95;;;14.30;99.90;;;;;;5005978;28;20041;-81
2023/05/14 07:00:17;;;;;;;16.95;8.15;;;14.30;99.90;;;;;;5005198;28;20046;-82
2023/05/14 07:02:43;;;;;;;17.48;7.60;;;14.40;99.90;;;;;;5003711;28;20038;-82
2023/05/14 07:05:09;;;;;;;16.20;7.20;;;14.40;99.90;;;;;;5018166;28;20033;-81
2023/05/14 07:07:35;;;;;;;17.60;7.63;;;14.40;99.90;;;;;;5007691;28;20061;-84
2023/05/14 07:10:00;;;;;;;15.88;8.05;;;14.50;99.90;;;;;;5011703;28;20029;-85
2023/05/14 07:12:26;;;;;;;16.05;7.63;;;14.60;99.90;;;;;;5022442;28;20029;-84
2023/05/14 07:14:52;;;;;;;18.50;7.75;;;14.60;99.90;;;;;;4989448;28;20602;-84
2023/05/14 07:17:17;;;;;;;18.15;7.47;;;14.70;99.90;;;;;;5016470;28;20046;-83
2023/05/14 07:19:43;;;;;;;21.00;7.38;;;14.90;99.90;;;;;;5024990;28;20124;-84
2023/05/14 07:22:08;;;;;;;16.20;7.97;;;15.20;99.90;;;;;;5000863;28;20037;-83
2023/05/14 07:24:34;;;;;;;19.75;9.15;;;15.30;99.90;;;;;;5022060;28;20091;-85
2023/05/14 07:27:00;;;;;;;17.13;7.70;;;15.60;99.90;;;;;;5017212;28;20113;-87
2023/05/14 07:29:26;;;;;;;14.68;7.65;;;15.70;99.90;;;;;;5009801;28;20056;-90
2023/05/14 07:31:51;;;;;;;13.00;7.68;;;15.80;99.90;;;;;;5003741;28;20507;-87
2023/05/14 07:34:18;;;;;;;14.35;6.80;;;15.90;99.90;;;;;;4997869;28;20316;-89
2023/05/14 07:36:44;;;;;;;12.05;6.30;;;16.00;99.90;;;;;;4999079;28;20556;-88
2023/05/14 07:39:09;;;;;;;15.32;6.53;;;16.10;99.90;;;;;;4976833;28;20054;-88
2023/05/14 07:41:35;;;;;;;14.55;6.55;;;16.20;99.90;;;;;;4981948;28;20031;-88
2023/05/14 07:44:00;;;;;;;10.30;5.90;;;16.30;99.90;;;;;;4976583;28;20046;-90
2023/05/14 07:46:26;;;;;;;12.00;6.07;;;16.30;99.90;;;;;;4976232;28;20042;-87
2023/05/14 07:48:52;;;;;;;12.77;5.78;;;16.40;99.90;;;;;;4979935;28;20504;-84
2023/05/14 07:51:17;;;;;;;15.82;6.53;;;16.30;99.90;;;;;;4980002;28;20042;-85
2023/05/14 07:53:43;;;;;;;14.00;6.13;;;16.20;99.90;;;;;;4979931;28;20445;-84
2023/05/14 07:56:08;;;;;;;12.40;5.85;;;16.20;99.90;;;;;;4974797;28;20140;-84
2023/05/14 07:58:34;;;;;;;13.65;6.70;;;16.30;99.90;;;;;;4974394;28;20042;-83
2023/05/14 08:01:02;;;;;;;12.50;6.47;;;16.20;99.90;;;;;;4973868;28;20034;-83
2023/05/14 08:03:28;;;;;;;12.20;6.80;;;16.30;99.90;;;;;;4980150;28;20078;-83
2023/05/14 08:05:53;;;;;;;14.15;6.00;;;16.30;99.90;;;;;;4980267;28;20084;-83
2023/05/14 08:08:19;;;;;;;10.32;5.90;;;16.40;99.90;;;;;;4976866;28;20038;-84
2023/05/14 08:10:44;;;;;;;12.10;5.68;;;16.40;99.90;;;;;;4980184;28;20097;-83
2023/05/14 08:13:10;;;;;;;14.90;6.70;;;16.50;99.90;;;;;;4975296;28;20125;-83
2023/05/14 08:15:36;;;;;;;13.63;6.07;;;16.60;99.90;;;;;;4970652;28;20121;-85
2023/05/14 08:18:02;;;;;;;13.65;6.03;;;16.60;99.90;;;;;;4972289;28;20042;-87
2023/05/14 08:20:31;;;;;;;10.57;6.03;;;16.70;99.90;;;;;;4978677;28;20312;-84
2023/05/14 08:22:57;;;;;;;12.52;6.20;;;16.80;99.90;;;;;;4978861;28;20081;-87
2023/05/14 08:25:23;;;;;;;10.55;5.53;;;16.80;99.90;;;;;;4975203;28;20062;-87
2023/05/14 08:27:49;;;;;;;11.68;6.20;;;16.90;99.90;;;;;;4973383;28;20484;-88
2023/05/14 08:30:15;;;;;;;12.30;5.75;;;16.90;99.90;;;;;;4971454;28;20042;-87
2023/05/14 08:32:41;;;;;;;10.45;5.70;;;16.90;99.90;;;;;;4979654;28;20043;-85
2023/05/14 08:35:07;;;;;;;12.75;6.30;;;16.90;99.90;;;;;;4980298;28;20042;-85
2023/05/14 08:37:32;;;;;;;9.60;5.32;;;17.00;99.90;;;;;;4961812;28;20055;-84
2023/05/14 08:39:58;;;;;;;13.18;6.28;;;17.10;99.90;;;;;;4979793;28;20113;-85
2023/05/14 08:42:25;;;;;;;13.13;7.18;;;17.20;99.90;;;;;;4987488;28;20046;-84
2023/05/14 08:45:01;;;;;;;16.10;6.93;;;17.40;99.90;;;;;;4983765;28;20038;-85
2023/05/14 08:47:31;;;;;;;13.85;6.20;;;17.50;99.90;;;;;;4970838;28;20066;-86
2023/05/14 08:50:06;;;;;;;10.02;5.97;;;17.60;99.90;;;;;;4976725;28;20564;-86
2023/05/14 08:52:32;;;;;;;;;;;17.70;99.90;;;;;;4980344;28;20069;-86
2023/05/14 08:55:04;;;;;;;10.85;5.57;;;17.70;99.90;;;;;;4981377;28;20350;-86
2023/05/14 08:57:32;;;;;;;13.40;6.75;;;17.70;99.90;;;;;;4982848;28;20050;-86
2023/05/14 08:59:57;;;;;;;13.38;6.50;;;17.70;99.90;;;;;;4978758;28;20393;-86
2023/05/14 09:02:27;;;;;;;16.05;6.90;;;17.80;99.90;;;;;;4972433;28;20039;-86
2023/05/14 09:04:56;;;;;;;14.23;6.57;;;17.80;99.90;;;;;;4975307;28;20114;-86
2023/05/14 09:07:22;;;;;;;11.10;6.25;;;17.90;99.90;;;;;;4974420;28;20438;-86
2023/05/14 09:09:48;;;;;;;16.27;7.07;;;18.00;99.90;;;;;;4983789;28;20465;-86
2023/05/14 09:12:14;;;;;;;11.90;7.03;;;18.00;99.90;;;;;;4977430;28;20046;-85
2023/05/14 09:14:40;;;;;;;14.27;6.53;;;18.10;99.90;;;;;;4980840;28;20049;-85
2023/05/14 09:17:07;;;;;;;14.45;7.18;;;18.30;99.90;;;;;;4975321;28;20035;-86
2023/05/14 09:19:32;;;;;;;15.00;6.20;;;18.30;99.90;;;;;;4979123;28;20560;-85
2023/05/14 09:21:58;;;;;;;12.70;6.85;;;18.40;99.90;;;;;;4978774;28;20039;-86
2023/05/14 09:24:26;;;;;;;12.85;6.82;;;18.50;99.90;;;;;;4979091;28;20062;-85
2023/05/14 09:26:53;;;;;;;15.52;7.57;;;18.60;99.90;;;;;;4972118;28;20109;-85
2023/05/14 09:29:19;;;;;;;13.60;7.07;;;18.70;99.90;;;;;;4976487;28;20078;-86
2023/05/14 09:31:45;;;;;;;17.67;7.78;;;18.70;99.90;;;;;;4978548;28;20066;-85
2023/05/14 09:34:10;;;;;;;16.60;8.13;;;18.80;99.90;;;;;;4975589;28;20110;-84
2023/05/14 09:36:37;;;;;;;17.50;8.18;;;18.90;99.90;;;;;;4963851;28;20510;-85
2023/05/14 09:39:03;;;;;;;12.32;8.07;;;19.00;99.90;;;;;;4975182;28;20034;-84
2023/05/14 09:41:28;;;;;;;16.17;9.00;;;19.10;99.90;;;;;;4970237;28;20622;-85
2023/05/14 09:43:55;;;;;;;14.13;8.40;;;19.30;99.90;;;;;;4972848;28;20046;-85
2023/05/14 09:46:22;;;;;;;17.15;8.73;;;19.40;99.90;;;;;;4975835;28;20047;-85
2023/05/14 09:48:48;;;;;;;12.85;9.00;;;19.40;99.90;;;;;;4971615;28;20042;-85
2023/05/14 09:51:14;;;;;;;11.80;8.05;;;19.50;99.90;;;;;;4983592;28;20126;-86
2023/05/14 09:53:40;;;;;;;12.82;7.80;;;19.60;99.90;;;;;;4978321;28;20497;-85
2023/05/14 09:56:06;;;;;;;12.43;7.55;;;19.70;99.90;;;;;;4973140;28;20445;-85
2023/05/14 09:58:31;;;;;;;16.70;8.65;;;19.80;99.90;;;;;;4979969;28;20042;-86
2023/05/14 10:00:57;;;;;;;11.27;7.45;;;19.90;99.90;;;;;;4974735;28;20086;-85
2023/05/14 10:03:26;;;;;;;11.90;8.10;;;20.00;99.90;;;;;;4979335;28;20492;-85
2023/05/14 10:05:54;;;;;;;14.07;7.38;;;20.10;99.90;;;;;;4970846;28;20130;-84
2023/05/14 10:08:37;;;;;;;15.32;8.23;;;20.10;99.90;;;;;;4975521;28;20049;-85
2023/05/14 10:11:08;;;;;;;13.25;9.18;;;20.30;99.90;;;;;;4975993;28;20042;-85
2023/05/14 10:13:38;;;;;;;12.15;8.65;;;20.40;99.90;;;;;;4976790;28;20088;-85
2023/05/14 10:16:25;;;;;;;12.32;9.20;;;20.40;99.90;;;;;;4970450;28;20046;-85
2023/05/14 10:18:54;;;;;;;13.05;7.45;;;20.50;99.90;;;;;;4978671;28;20088;-85
2023/05/14 10:21:22;;;;;;;11.63;7.63;;;20.60;99.90;;;;;;4975117;28;20053;-85
2023/05/14 10:23:49;;;;;;;11.60;7.85;;;20.80;99.90;;;;;;4977894;28;20390;-85
2023/05/14 10:26:15;;;;;;;11.55;7.85;;;20.90;99.90;;;;;;4989658;28;20042;-85
2023/05/14 10:28:41;;;;;;;16.20;8.93;;;21.00;99.90;;;;;;4986883;28;20038;-85
2023/05/14 10:31:08;;;;;;;13.20;9.07;;;21.20;99.90;;;;;;4981040;28;20121;-85
2023/05/14 10:33:46;;;;;;;9.00;6.07;;;21.20;99.90;;;;;;4959379;28;20525;-85
2023/05/14 10:36:12;;;;;;;9.05;6.32;;;21.10;99.90;;;;;;4985136;28;20080;-85
2023/05/14 10:38:38;;;;;;;12.85;6.75;;;21.20;99.90;;;;;;5022420;28;20050;-84
2023/05/14 10:41:06;;;;;;;12.10;6.50;;;21.20;99.90;;;;;;5020064;28;20073;-84
2023/05/14 10:43:37;;;;;;;8.45;6.30;;;21.30;99.90;;;;;;5005662;28;20045;-84
2023/05/14 10:46:03;;;;;;;13.80;6.50;;;21.30;99.90;;;;;;5023758;28;20038;-84
2023/05/14 10:48:29;;;;;;;10.60;6.18;;;21.40;99.90;;;;;;5018075;28;20473;-84
2023/05/14 10:50:56;;;;;;;9.38;6.45;;;21.30;99.90;;;;;;4998427;28;20042;-84
2023/05/14 10:53:35;;;;;;;9.55;6.07;;;21.50;99.90;;;;;;4996484;28;20038;-84
2023/05/14 10:56:12;;;;;;;10.00;5.10;;;21.50;99.90;;;;;;4996944;28;20050;-84
2023/05/14 10:58:40;;;;;;;8.80;5.15;;;21.60;99.90;;;;;;5002850;28;20489;-85
2023/05/14 11:01:07;;;;;;;8.57;5.22;;;21.60;99.90;;;;;;5004523;28;20044;-84
2023/05/14 11:03:39;;;;;;;7.22;3.83;;;21.60;99.90;;;;;;5017860;28;20045;-84
2023/05/14 11:06:06;;;;;;;10.88;4.60;;;21.70;99.90;;;;;;4997627;28;20052;-84
2023/05/14 11:08:32;;;;;;;6.57;3.75;;;21.70;99.90;;;;;;4996562;28;20099;-83
2023/05/14 11:10:58;;;;;;;9.23;4.60;;;21.90;99.90;;;;;;4979221;28;20038;-84
2023/05/14 11:13:25;;;;;;;7.53;3.92;;;22.00;99.90;;;;;;5016800;28;20109;-85
2023/05/14 11:15:51;;;;;;;11.30;6.03;;;22.10;99.90;;;;;;5016514;28;20077;-85
2023/05/14 11:18:32;;;;;;;8.98;5.07;;;22.10;99.90;;;;;;5000446;28;20570;-85
2023/05/14 11:21:01;;;;;;;8.40;5.20;;;22.30;99.90;;;;;;5016827;28;20038;-85
2023/05/14 11:23:27;;;;;;;8.35;5.07;;;22.30;99.90;;;;;;4981441;28;20042;-85
2023/05/14 11:25:54;;;;;;;6.90;3.95;;;22.40;99.90;;;;;;5023273;28;20049;-85
2023/05/14 11:28:24;;;;;;;6.80;3.90;;;22.40;99.90;;;;;;5013972;28;20038;-85
2023/05/14 11:30:50;;;;;;;7.25;4.35;;;22.40;99.90;;;;;;5001924;28;20045;-85
2023/05/14 11:33:16;;;;;;;6.38;4.32;;;22.50;99.90;;;;;;5001738;28;20037;-85
2023/05/14 11:35:44;;;;;;;13.05;4.53;;;22.60;99.90;;;;;;4988582;28;20516;-84
2023/05/14 11:38:18;;;;;;;6.38;3.88;;;22.60;99.30;;;;;;4998304;28;20053;-85
2023/05/14 11:40:54;;;;;;;7.68;4.40;;;22.70;99.70;;;;;;5015503;28;20037;-85
2023/05/14 11:43:23;;;;;;;9.82;4.40;;;22.80;99.00;;;;;;5023763;28;20057;-84
2023/05/14 11:45:51;;;;;;;12.15;4.80;;;22.90;99.70;;;;;;5001247;28;20037;-83
2023/05/14 11:48:17;;;;;;;7.05;4.57;;;23.00;98.10;;;;;;4982685;28;20037;-83
2023/05/14 11:50:46;;;;;;;7.18;4.60;;;23.20;98.40;;;;;;5016245;28;20110;-82
2023/05/14 11:53:28;;;;;;;9.13;4.60;;;23.30;98.10;;;;;;5019989;28;20052;-84
2023/05/14 11:55:54;;;;;;;7.65;4.10;;;23.30;98.10;;;;;;5017484;28;20061;-84
2023/05/14 11:58:20;;;;;;;8.45;4.72;;;23.40;97.10;;;;;;5018647;28;20124;-84
2023/05/14 12:00:49;;;;;;;9.20;4.25;;;23.40;97.40;;;;;;4998833;28;20049;-83
2023/05/14 12:03:21;;;;;;;7.30;4.28;;;23.40;95.80;;;;;;5011067;28;20064;-84
2023/05/14 12:05:57;;;;;;;9.30;4.20;;;23.50;98.10;;;;;;4998755;28;20041;-84
2023/05/14 12:08:30;;;;;;;9.43;4.55;;;23.40;99.30;;;;;;5000479;28;20042;-83
2023/05/14 12:10:59;;;;;;;7.30;4.18;;;23.50;98.60;;;;;;5000089;28;20038;-83
2023/05/14 12:13:26;;;;;;;10.10;3.85;;;23.50;98.10;;;;;;4996542;28;20092;-83
2023/05/14 12:15:57;;;;;;;8.85;3.95;;;23.60;97.90;;;;;;5014118;28;20053;-84
2023/05/14 12:18:27;;;;;;;7.50;4.22;;;23.60;98.10;;;;;;5004173;28;20091;-84
2023/05/14 12:20:53;;;;;;;6.95;3.83;;;23.70;95.40;;;;;;5022176;28;20030;-83
2023/05/14 12:23:26;;;;;;;7.00;3.40;;;23.80;95.90;;;;;;4992463;28;20519;-83
2023/05/14 12:25:52;;;;;;;6.40;3.85;;;23.80;96.70;;;;;;5008591;28;20049;-83
2023/05/14 12:28:18;;;;;;;5.18;3.75;;;23.80;96.50;;;;;;4986690;28;20392;-83
2023/05/14 12:30:48;;;;;;;10.30;4.10;;;23.90;96.80;;;;;;5002713;28;20042;-82
2023/05/14 12:33:13;;;;;;;8.95;3.80;;;23.90;96.30;;;;;;5008327;28;20122;-82
2023/05/14 12:35:39;;;;;;;6.53;3.60;;;24.00;98.00;;;;;;5000004;28;20722;-82
2023/05/14 12:38:05;;;;;;;7.53;3.80;;;24.00;96.20;;;;;;4998267;28;20072;-82